Time;durP1;ratioP1;P1;durP2;ratioP2;P2;SDS_P1;SDS_P2;PMS_P1;PMS_P2;Temp;Humidity;BMP_temperature;BMP_pressure;BME280_temperature;BME280_humidity;BME280_pressure;Samples;Min_cycle;Max_cycle;Signal;HPM_P1;HPM_P2
2022/01/20 00:02:05;;;;;;;19.65;4.55;;;;;;;7.19;60.10;100801.75;6090171;23;119403;-85
2022/01/20 00:04:47;;;;;;;24.08;5.60;;;;;;;7.37;59.49;100831.38;6087604;23;120583;-84
2022/01/20 00:07:30;;;;;;;27.80;6.65;;;;;;;7.65;59.02;100865.44;6040507;23;122243;-85
2022/01/20 00:25:51;;;;;;;29.10;8.90;;;;;;;7.23;56.00;100782.56;6073251;23;122867;-84
2022/01/20 00:26:42;;;;;;;34.30;9.13;;;;;;;7.39;54.95;100812.59;6119823;23;119622;-84
2022/01/20 00:29:15;;;;;;;36.45;7.55;;;;;;;7.35;55.17;100812.69;6093028;23;119760;-86
2022/01/20 00:32:01;;;;;;;24.35;6.53;;;;;;;7.35;54.04;100795.56;6094405;23;119132;-83
2022/01/20 00:34:42;;;;;;;32.55;7.40;;;;;;;7.28;51.61;100785.56;6094247;23;121264;-84
2022/01/20 00:37:17;;;;;;;24.55;5.15;;;;;;;7.16;50.56;100791.69;6066546;23;121887;-85
2022/01/20 00:39:43;;;;;;;22.38;4.88;;;;;;;7.33;49.64;100825.19;6066741;23;119053;-84
2022/01/20 00:42:15;;;;;;;21.17;5.10;;;;;;;7.15;50.54;100806.53;6041832;23;120908;-84
2022/01/20 00:44:43;;;;;;;21.23;5.15;;;;;;;7.03;48.97;100804.44;6092736;23;120620;-85
2022/01/20 00:47:14;;;;;;;21.98;5.22;;;;;;;7.06;48.71;100807.06;6097962;23;119101;-86
2022/01/20 00:49:41;;;;;;;21.63;5.15;;;;;;;7.08;47.72;100812.88;6042515;23;121685;-82
2022/01/20 00:52:08;;;;;;;18.15;4.40;;;;;;;7.40;48.01;100863.28;6066165;23;119302;-85
2022/01/20 00:54:34;;;;;;;24.88;5.82;;;;;;;7.26;47.88;100839.00;6067616;23;119268;-82
2022/01/20 00:57:04;;;;;;;18.77;4.65;;;;;;;7.49;50.41;100889.97;6043190;23;121863;-85
2022/01/20 00:59:32;;;;;;;20.20;4.90;;;;;;;7.11;48.26;100841.28;6066656;23;119375;-85
2022/01/20 01:02:01;;;;;;;23.17;4.68;;;;;;;7.12;50.17;100863.88;6064965;23;120632;-84
2022/01/20 01:04:30;;;;;;;24.38;5.90;;;;;;;6.98;52.51;100848.56;6064632;23;121983;-84
2022/01/20 01:07:20;;;;;;;22.33;4.95;;;;;;;6.87;54.40;100850.75;6087065;23;119167;-84
2022/01/20 01:09:49;;;;;;;13.27;4.25;;;;;;;6.61;56.68;100839.53;6093108;23;120994;-85
2022/01/20 01:12:25;;;;;;;20.02;5.32;;;;;;;6.85;54.87;100892.06;6063124;23;119382;-84
2022/01/20 01:14:53;;;;;;;22.33;4.80;;;;;;;6.46;53.61;100839.06;6062596;23;119348;-84
2022/01/20 01:20:13;;;;;;;16.77;3.83;;;;;;;6.31;54.60;100873.19;6086709;23;119523;-85
2022/01/20 01:22:39;;;;;;;24.20;3.90;;;;;;;6.25;54.58;100871.38;6086576;23;119118;-85
2022/01/20 01:25:06;;;;;;;17.48;3.80;;;;;;;6.17;55.32;100872.69;6087499;23;120136;-86
2022/01/20 01:27:37;;;;;;;15.75;3.33;;;;;;;6.56;56.67;100932.72;6089330;23;119365;-84
2022/01/20 01:30:14;;;;;;;17.30;3.00;;;;;;;6.46;56.00;100925.50;6063241;23;119996;-84
2022/01/20 01:32:54;;;;;;;16.00;3.65;;;;;;;6.04;56.01;100870.53;6095831;23;119975;-82
2022/01/20 01:35:28;;;;;;;16.45;2.53;;;;;;;6.13;54.62;100903.44;6044130;23;120811;-83
2022/01/20 01:40:28;;;;;;;10.10;2.30;;;;;;;6.04;55.54;100911.38;6064522;23;119394;-85
2022/01/20 01:42:57;;;;;;;9.98;1.70;;;;;;;6.12;55.61;100893.75;6064674;23;121558;-85
2022/01/20 01:45:42;;;;;;;12.13;2.45;;;;;;;5.93;55.83;100880.09;6090641;23;120708;-86
2022/01/20 01:48:14;;;;;;;8.88;1.67;;;;;;;5.92;55.71;100890.19;6066487;23;119151;-84
2022/01/20 01:50:42;;;;;;;9.35;2.03;;;;;;;5.97;55.95;100906.06;6040175;23;123282;-83
2022/01/20 01:53:11;;;;;;;8.80;1.80;;;;;;;5.75;56.18;100875.63;6040258;23;122000;-83
2022/01/20 01:55:38;;;;;;;9.27;2.22;;;;;;;5.98;56.67;100926.66;6069586;23;120022;-85
2022/01/20 01:58:09;;;;;;;6.65;1.60;;;;;;;5.57;57.18;100868.91;6043829;23;120361;-85
2022/01/20 02:00:43;;;;;;;;;;;;;;;5.95;56.79;100922.03;6067876;23;119381;-81
2022/01/20 02:03:14;;;;;;;6.05;1.30;;;;;;;5.42;56.87;100841.91;6067769;23;119990;-86
2022/01/20 02:09:14;;;;;;;8.07;1.92;;;;;;;5.96;57.05;100907.25;6067986;23;119018;-84
2022/01/20 02:17:52;;;;;;;12.00;2.30;;;;;;;5.47;56.89;100830.56;6065787;23;121983;-85
2022/01/20 02:20:18;;;;;;;12.77;2.15;;;;;;;5.89;58.00;100895.66;6066755;23;122570;-85
2022/01/20 02:22:55;;;;;;;10.98;2.67;;;;;;;5.66;57.66;100861.00;6045110;23;119426;-84
2022/01/20 02:25:33;;;;;;;11.45;2.92;;;;;;;5.51;57.90;100842.16;6045836;23;119608;-85
2022/01/20 02:28:08;;;;;;;15.27;2.70;;;;;;;5.62;58.10;100841.22;6069070;23;120233;-86
2022/01/20 02:30:43;;;;;;;15.50;3.28;;;;;;;5.74;58.17;100868.66;6092588;23;119210;-85
2022/01/20 02:33:20;;;;;;;14.82;3.45;;;;;;;5.90;58.80;100913.56;6044282;23;120200;-86
2022/01/20 02:35:53;;;;;;;20.58;3.47;;;;;;;5.68;58.33;100869.50;6045480;23;119628;-86
2022/01/20 02:38:38;;;;;;;18.38;3.70;;;;;;;5.62;57.29;100863.78;6047094;23;118356;-84
2022/01/20 02:46:43;;;;;;;19.50;4.18;;;;;;;5.81;57.69;100903.94;6069503;23;121066;-86
2022/01/20 02:52:08;;;;;;;21.42;4.07;;;;;;;5.50;57.48;100854.25;6035824;23;119088;-84
2022/01/20 02:54:35;;;;;;;20.95;3.58;;;;;;;5.62;56.72;100847.44;6011846;23;120171;-85
2022/01/20 02:57:05;;;;;;;21.33;3.80;;;;;;;5.59;57.20;100866.56;6033612;23;121383;-85
2022/01/20 02:59:35;;;;;;;23.55;4.68;;;;;;;5.97;56.86;100911.50;6012014;23;119306;-85
2022/01/20 03:02:10;;;;;;;25.83;3.97;;;;;;;6.02;56.74;100938.25;6034929;23;119935;-87
2022/01/20 03:04:41;;;;;;;26.08;4.28;;;;;;;5.81;56.56;100889.56;6034995;23;121610;-86
2022/01/20 03:07:16;;;;;;;26.25;5.05;;;;;;;5.78;55.94;100887.66;6033427;23;121235;-85
2022/01/20 03:09:47;;;;;;;24.35;4.50;;;;;;;5.62;54.99;100896.44;6009807;23;121761;-85
2022/01/20 03:12:19;;;;;;;22.75;4.50;;;;;;;5.78;54.79;100912.91;6055836;23;119347;-86
2022/01/20 03:14:52;;;;;;;24.15;4.30;;;;;;;5.98;54.30;100962.06;6034533;23;119640;-84
2022/01/20 03:17:18;;;;;;;27.83;5.00;;;;;;;5.57;52.46;100882.53;6004005;23;122796;-83
2022/01/20 03:19:46;;;;;;;24.52;4.85;;;;;;;5.77;52.57;100900.50;6032509;23;118956;-85
2022/01/20 03:22:13;;;;;;;25.55;4.30;;;;;;;5.97;52.67;100941.47;6056501;23;120216;-85
2022/01/20 03:24:41;;;;;;;28.58;5.15;;;;;;;6.17;51.25;100954.41;6055120;23;119190;-84
2022/01/20 03:27:08;;;;;;;27.08;5.50;;;;;;;5.76;50.82;100900.91;6034112;23;119360;-83
2022/01/20 03:29:36;;;;;;;23.13;4.75;;;;;;;6.19;50.61;100968.38;6002843;23;121932;-82
2022/01/20 03:32:03;;;;;;;22.42;4.50;;;;;;;6.24;51.34;100973.34;6003413;23;119200;-85
2022/01/20 03:34:31;;;;;;;25.30;5.05;;;;;;;6.03;51.82;100950.69;5983337;23;121065;-85
2022/01/20 03:37:05;;;;;;;24.45;4.53;;;;;;;5.99;50.76;100935.59;6006064;23;120538;-85
2022/01/20 03:39:45;;;;;;;19.52;4.05;;;;;;;6.13;50.57;100963.38;6021290;23;119204;-84
2022/01/20 03:42:11;;;;;;;23.95;4.68;;;;;;;6.27;50.08;100972.50;6001971;23;121101;-85
2022/01/20 03:44:38;;;;;;;22.70;4.82;;;;;;;6.35;50.25;100990.28;6003195;23;121681;-84
2022/01/20 03:47:07;;;;;;;19.65;4.63;;;;;;;5.98;49.17;100931.34;6026744;23;119391;-84
2022/01/20 03:49:50;;;;;;;24.33;5.05;;;;;;;6.28;49.51;100993.91;6029792;23;119585;-85
2022/01/20 03:52:16;;;;;;;20.85;4.53;;;;;;;5.88;49.93;100911.22;6050732;23;119245;-84
2022/01/20 03:54:42;;;;;;;27.98;4.55;;;;;;;5.88;49.18;100918.59;6074692;23;121131;-82
2022/01/20 03:57:30;;;;;;;23.45;5.28;;;;;;;5.92;49.01;100933.75;6049176;23;119070;-83
2022/01/20 04:00:15;;;;;;;25.05;4.38;;;;;;;6.06;48.84;100965.44;6049793;23;119492;-84
2022/01/20 04:02:42;;;;;;;26.17;4.72;;;;;;;6.19;48.03;100990.94;6048860;23;122161;-83
2022/01/20 04:05:25;;;;;;;24.10;4.50;;;;;;;6.04;48.41;100968.56;6099123;23;119923;-83
2022/01/20 04:08:10;;;;;;;21.83;4.82;;;;;;;6.04;48.06;100965.84;6025751;23;119094;-84
2022/01/20 04:10:38;;;;;;;26.85;4.95;;;;;;;6.30;47.65;101001.66;6078283;23;119219;-82
2022/01/20 04:13:04;;;;;;;22.48;4.32;;;;;;;6.00;47.62;100956.97;6049848;23;119422;-84
2022/01/20 04:15:38;;;;;;;26.75;4.95;;;;;;;5.85;47.37;100959.09;6051051;23;121270;-84
2022/01/20 04:18:06;;;;;;;25.58;4.82;;;;;;;6.00;46.99;100978.75;6051054;23;119499;-84
2022/01/20 04:20:33;;;;;;;21.80;4.70;;;;;;;5.81;47.57;100950.22;6025530;23;119241;-84
2022/01/20 04:23:02;;;;;;;22.95;4.68;;;;;;;5.82;47.54;100959.91;6051454;23;119105;-84
2022/01/20 04:25:28;;;;;;;26.05;5.00;;;;;;;6.26;46.96;101026.22;6051314;23;121746;-84
2022/01/20 04:27:54;;;;;;;24.63;4.75;;;;;;;5.81;46.95;100957.59;6002017;23;119484;-85
2022/01/20 04:30:24;;;;;;;25.85;4.70;;;;;;;6.10;47.56;101007.00;6026193;23;121089;-84
2022/01/20 04:32:50;;;;;;;23.02;5.38;;;;;;;5.92;46.84;100984.72;6005540;23;123497;-84
2022/01/20 04:35:19;;;;;;;22.98;5.35;;;;;;;5.88;47.67;100983.94;6001711;23;119432;-84
2022/01/20 04:37:48;;;;;;;28.25;4.85;;;;;;;6.12;47.39;101010.09;6049895;23;123199;-84
2022/01/20 04:40:15;;;;;;;24.40;4.75;;;;;;;5.88;47.65;100970.34;6025401;23;119571;-84
2022/01/20 04:42:44;;;;;;;31.52;4.65;;;;;;;5.97;47.54;100990.47;6025954;23;121122;-83
2022/01/20 04:45:14;;;;;;;22.48;4.90;;;;;;;5.93;47.24;100994.44;6025171;23;122471;-82
2022/01/20 04:58:29;;;;;;;20.35;4.85;;;;;;;6.40;48.84;101058.72;6024769;23;122701;-82
2022/01/20 05:00:59;;;;;;;21.60;4.40;;;;;;;6.23;48.93;101029.00;6025713;23;119531;-83
2022/01/20 05:03:45;;;;;;;27.02;5.25;;;;;;;6.01;47.95;101012.97;6048937;23;119954;-84
2022/01/20 05:06:32;;;;;;;24.52;4.53;;;;;;;5.96;48.40;101005.28;6045787;23;121733;-83
2022/01/20 05:08:57;;;;;;;30.13;5.03;;;;;;;6.12;48.95;101031.88;6051385;23;119579;-83
2022/01/20 05:11:24;;;;;;;24.55;4.47;;;;;;;5.98;48.18;101013.78;6075033;23;120606;-83
2022/01/20 05:13:50;;;;;;;27.75;5.43;;;;;;;6.43;48.00;101082.44;6025388;23;122109;-82
2022/01/20 05:16:16;;;;;;;21.95;4.95;;;;;;;6.46;47.98;101086.28;6075256;23;119317;-84
2022/01/20 05:18:48;;;;;;;23.48;4.25;;;;;;;6.34;48.14;101060.34;6031343;23;121308;-83
2022/01/20 05:21:17;;;;;;;29.00;4.93;;;;;;;6.45;47.56;101080.06;6075513;23;119275;-84
2022/01/20 05:23:43;;;;;;;19.75;4.22;;;;;;;6.49;48.15;101096.34;6026955;23;121025;-85
2022/01/20 05:26:13;;;;;;;26.35;4.35;;;;;;;6.46;48.40;101099.91;6026290;23;120417;-83
2022/01/20 05:28:39;;;;;;;23.02;4.78;;;;;;;6.48;47.76;101102.97;6076887;23;119404;-84
2022/01/20 05:31:05;;;;;;;19.42;4.13;;;;;;;6.05;48.41;101034.72;6027479;23;121523;-85
2022/01/20 05:33:47;;;;;;;26.55;4.72;;;;;;;6.49;48.62;101101.03;6050983;23;119386;-85
2022/01/20 05:36:14;;;;;;;23.00;4.55;;;;;;;6.33;47.95;101074.38;6052105;23;119347;-85
2022/01/20 05:38:40;;;;;;;21.48;3.92;;;;;;;6.29;48.29;101065.50;6076483;23;122239;-85
2022/01/20 05:41:06;;;;;;;21.40;3.70;;;;;;;6.23;48.70;101067.16;6057776;23;119567;-85
2022/01/20 05:43:33;;;;;;;18.90;3.95;;;;;;;6.45;48.47;101103.81;6028855;23;120871;-85
2022/01/20 05:46:03;;;;;;;21.83;3.90;;;;;;;6.38;47.38;101091.03;6026433;23;123424;-84
2022/01/20 05:48:36;;;;;;;23.98;4.78;;;;;;;6.49;47.98;101107.25;6027807;23;119478;-83
2022/01/20 05:51:05;;;;;;;20.60;3.95;;;;;;;6.12;48.00;101067.28;6050690;23;119611;-85
2022/01/20 05:53:33;;;;;;;25.38;4.72;;;;;;;6.49;48.10;101123.59;6003437;23;121881;-85
2022/01/20 05:55:59;;;;;;;19.60;4.15;;;;;;;6.37;48.61;101108.56;6078761;23;119435;-85
2022/01/20 05:58:25;;;;;;;18.60;3.95;;;;;;;6.22;48.48;101087.41;6053007;23;119302;-83
2022/01/20 06:00:54;;;;;;;27.98;4.57;;;;;;;6.09;48.59;101074.31;6029737;23;121995;-83
2022/01/20 06:03:36;;;;;;;20.90;4.45;;;;;;;6.16;48.63;101073.47;6057925;23;119752;-85
2022/01/20 06:06:07;;;;;;;25.42;4.72;;;;;;;6.24;48.76;101085.81;6027446;23;120620;-85
2022/01/20 06:08:35;;;;;;;25.20;5.40;;;;;;;6.13;49.21;101061.41;6077481;23;119195;-84
2022/01/20 06:11:02;;;;;;;28.92;5.07;;;;;;;6.43;49.38;101111.63;6051792;23;119502;-83
2022/01/20 06:13:31;;;;;;;22.33;4.78;;;;;;;6.29;49.64;101093.50;6029561;23;122206;-84
2022/01/20 06:16:01;;;;;;;23.95;5.50;;;;;;;6.57;49.60;101146.84;6029154;23;119805;-85
2022/01/20 06:18:27;;;;;;;26.63;5.65;;;;;;;6.11;50.04;101087.53;6032526;23;119321;-86
2022/01/20 06:20:56;;;;;;;27.10;5.05;;;;;;;6.60;49.67;101151.47;6079680;23;122043;-82
2022/01/20 06:23:23;;;;;;;25.02;5.07;;;;;;;6.18;49.90;101089.41;6057318;23;119417;-85
2022/01/20 06:25:51;;;;;;;26.80;5.30;;;;;;;6.32;49.66;101117.22;6003372;23;122786;-85
2022/01/20 06:28:18;;;;;;;27.05;5.22;;;;;;;6.55;50.46;101160.09;6027586;23;119389;-85
2022/01/20 06:30:44;;;;;;;24.90;5.05;;;;;;;6.61;50.23;101180.25;6028553;23;121310;-86
2022/01/20 06:33:10;;;;;;;26.88;4.70;;;;;;;6.40;50.05;101147.88;6027353;23;122176;-85
2022/01/20 06:35:47;;;;;;;19.55;4.57;;;;;;;6.25;50.45;101136.38;6078102;23;119239;-84
2022/01/20 06:38:15;;;;;;;24.75;5.05;;;;;;;6.27;50.48;101138.69;6029743;23;119737;-85
2022/01/20 06:40:42;;;;;;;23.65;5.25;;;;;;;6.28;51.11;101151.13;6004090;23;123175;-84
2022/01/20 06:43:13;;;;;;;22.33;5.25;;;;;;;6.54;50.40;101188.53;6027968;23;119491;-85
2022/01/20 06:45:40;;;;;;;23.83;5.05;;;;;;;6.27;51.10;101152.31;6008029;23;120593;-85
2022/01/20 06:48:10;;;;;;;26.02;5.18;;;;;;;6.53;51.06;101180.78;6053554;23;119418;-85
2022/01/20 06:50:48;;;;;;;26.98;5.13;;;;;;;6.31;50.87;101166.66;6029659;23;119333;-85
2022/01/20 06:53:14;;;;;;;23.45;4.70;;;;;;;6.61;50.30;101223.09;6026549;23;121072;-84
2022/01/20 06:55:40;;;;;;;27.95;4.93;;;;;;;6.16;50.67;101147.00;6101524;23;119212;-86
2022/01/20 06:58:06;;;;;;;28.02;5.05;;;;;;;6.61;51.08;101229.31;6052980;23;119578;-85
2022/01/20 07:00:33;;;;;;;25.13;4.10;;;;;;;6.20;50.85;101176.94;6051308;23;119783;-85
2022/01/20 07:02:59;;;;;;;21.75;4.43;;;;;;;6.35;50.95;101202.81;6028673;23;119495;-84
2022/01/20 07:05:25;;;;;;;25.67;4.55;;;;;;;6.22;50.89;101185.47;6028132;23;120999;-85
2022/01/20 07:07:52;;;;;;;22.92;4.57;;;;;;;6.22;50.92;101182.75;6057939;23;119843;-83
2022/01/20 07:10:21;;;;;;;21.27;4.45;;;;;;;6.22;50.64;101185.47;6027199;23;122952;-84
2022/01/20 07:12:54;;;;;;;27.00;4.90;;;;;;;6.12;50.61;101170.78;6049583;23;121950;-84
2022/01/20 07:15:21;;;;;;;30.17;4.30;;;;;;;6.43;51.34;101209.72;6051942;23;119768;-85
2022/01/20 07:17:49;;;;;;;25.02;4.90;;;;;;;6.34;51.09;101218.38;6104510;23;119079;-85
2022/01/20 07:20:17;;;;;;;22.02;4.38;;;;;;;6.17;50.88;101183.19;6007807;23;122896;-86
2022/01/20 07:23:12;;;;;;;23.40;4.65;;;;;;;6.14;51.11;101177.34;6051764;23;119805;-85
2022/01/20 07:26:01;;;;;;;28.40;5.03;;;;;;;6.68;51.12;101277.56;6035453;23;121482;-85
2022/01/20 07:28:30;;;;;;;25.08;4.82;;;;;;;6.18;51.13;101196.41;6031561;23;123149;-83
2022/01/20 07:30:59;;;;;;;18.75;4.10;;;;;;;6.44;51.15;101230.34;6060824;23;119393;-85
2022/01/20 07:33:25;;;;;;;20.15;3.60;;;;;;;6.25;51.14;101212.66;6055190;23;119521;-85
2022/01/20 07:35:56;;;;;;;24.55;4.43;;;;;;;6.57;50.27;101264.03;6030820;23;119400;-85
2022/01/20 07:38:22;;;;;;;31.48;4.60;;;;;;;6.34;50.10;101223.06;6030613;23;120752;-83
2022/01/20 07:40:53;;;;;;;25.55;3.97;;;;;;;6.32;50.02;101222.69;6030585;23;119332;-85
2022/01/20 07:43:22;;;;;;;23.40;4.10;;;;;;;6.37;50.23;101235.88;6031295;23;119258;-84
2022/01/20 07:45:56;;;;;;;20.75;3.90;;;;;;;6.67;50.49;101284.97;6032527;23;120644;-85
2022/01/20 07:48:55;;;;;;;25.02;3.75;;;;;;;6.69;51.04;101277.16;6025675;23;123172;-83
2022/01/20 07:51:21;;;;;;;23.05;3.92;;;;;;;6.43;50.35;101245.94;6030850;23;119371;-84
2022/01/20 07:53:54;;;;;;;18.00;3.40;;;;;;;6.66;50.08;101299.00;6036875;23;121048;-86
2022/01/20 07:56:20;;;;;;;15.50;3.30;;;;;;;6.27;49.68;101256.63;6033543;23;119142;-86
2022/01/20 07:58:48;;;;;;;17.52;3.80;;;;;;;6.25;49.63;101237.19;6034107;23;119369;-85
2022/01/20 08:01:17;;;;;;;21.90;3.75;;;;;;;6.37;49.89;101263.13;6033515;23;121940;-82
2022/01/20 08:03:55;;;;;;;19.88;3.67;;;;;;;6.39;50.37;101258.06;6032700;23;119191;-85
2022/01/20 08:06:24;;;;;;;28.77;5.00;;;;;;;6.71;50.69;101314.91;6081497;23;119349;-86
2022/01/20 08:09:00;;;;;;;17.05;3.88;;;;;;;6.24;50.98;101227.47;6034062;23;119430;-86
2022/01/20 08:11:29;;;;;;;20.45;4.53;;;;;;;6.44;50.90;101258.38;6058128;23;119322;-85
2022/01/20 08:14:06;;;;;;;19.70;3.97;;;;;;;6.63;50.61;101273.34;6056575;23;119257;-85
2022/01/20 08:16:32;;;;;;;17.13;3.72;;;;;;;6.74;50.22;101293.03;6061079;23;120044;-85
2022/01/20 08:18:58;;;;;;;19.10;3.33;;;;;;;6.45;51.40;101238.13;6034187;23;120910;-84
2022/01/20 08:21:24;;;;;;;24.20;4.07;;;;;;;6.43;51.20;101237.75;6056844;23;119311;-84
2022/01/20 08:23:52;;;;;;;18.77;3.53;;;;;;;6.51;50.96;101246.59;6008812;23;119844;-86
2022/01/20 08:26:18;;;;;;;20.77;3.92;;;;;;;6.50;51.20;101255.19;6031826;23;121297;-85
2022/01/20 08:28:45;;;;;;;20.80;4.28;;;;;;;6.55;50.80;101252.78;6056983;23;121632;-83
2022/01/20 08:31:14;;;;;;;17.90;3.40;;;;;;;6.98;52.21;101314.97;6057933;23;119122;-85
2022/01/20 08:33:43;;;;;;;19.90;3.75;;;;;;;6.76;51.89;101255.22;6034487;23;119305;-83
2022/01/20 08:36:16;;;;;;;19.90;4.10;;;;;;;6.71;51.89;101233.13;6065822;23;119138;-86
2022/01/20 08:38:47;;;;;;;16.90;4.05;;;;;;;6.94;50.47;101262.41;6057823;23;121863;-81
2022/01/20 08:41:13;;;;;;;18.10;3.80;;;;;;;7.03;51.50;101281.75;6056386;23;119251;-83
2022/01/20 08:43:40;;;;;;;18.98;3.90;;;;;;;7.22;51.37;101311.13;6059635;23;119121;-83
2022/01/20 08:46:09;;;;;;;22.10;4.18;;;;;;;6.99;51.85;101275.59;6035480;23;119104;-83
2022/01/20 08:48:37;;;;;;;22.75;4.20;;;;;;;6.82;51.17;101260.22;6034948;23;121844;-83
2022/01/20 08:51:36;;;;;;;17.17;3.72;;;;;;;6.62;52.49;101254.63;6051528;23;119777;-82
2022/01/20 08:54:13;;;;;;;22.38;4.28;;;;;;;7.02;51.41;101327.34;6029755;23;120831;-86
2022/01/20 08:56:40;;;;;;;23.35;4.20;;;;;;;6.74;51.10;101282.13;6055949;23;120003;-81
2022/01/20 08:59:08;;;;;;;20.45;3.65;;;;;;;6.78;51.03;101299.22;6014063;23;118970;-85
2022/01/20 09:01:36;;;;;;;25.70;4.57;;;;;;;6.56;51.02;101272.63;6079896;23;122064;-83
2022/01/20 09:04:05;;;;;;;22.38;4.40;;;;;;;6.74;51.34;101295.78;6055781;23;119306;-86
2022/01/20 09:06:33;;;;;;;21.90;4.22;;;;;;;6.44;51.08;101250.19;6080480;23;121387;-81
2022/01/20 09:09:11;;;;;;;19.88;4.18;;;;;;;6.91;51.59;101325.97;6105316;23;119239;-84
2022/01/20 09:11:50;;;;;;;25.40;4.20;;;;;;;6.64;51.63;101287.75;6031839;23;119847;-86
2022/01/20 09:17:01;;;;;;;22.05;4.03;;;;;;;6.58;51.44;101271.03;6056303;23;122249;-86
2022/01/20 09:19:32;;;;;;;18.42;3.60;;;;;;;6.61;51.10;101262.03;6030331;23;119228;-83
2022/01/20 09:22:05;;;;;;;23.15;4.80;;;;;;;7.05;51.00;101325.75;6037945;23;120826;-84
2022/01/20 09:24:31;;;;;;;23.30;4.50;;;;;;;6.76;51.65;101273.56;6056176;23;119268;-82
2022/01/20 09:27:00;;;;;;;25.40;4.47;;;;;;;6.68;51.23;101256.53;6032952;23;121547;-84
2022/01/20 09:29:26;;;;;;;21.83;4.30;;;;;;;6.85;50.21;101267.59;6083145;23;119174;-83
2022/01/20 09:31:53;;;;;;;17.60;4.40;;;;;;;6.75;50.20;101269.28;6035045;23;119497;-83
2022/01/20 09:34:24;;;;;;;21.75;4.72;;;;;;;6.76;49.83;101266.16;6057281;23;118455;-84
2022/01/20 09:36:51;;;;;;;17.73;4.55;;;;;;;6.91;51.07;101288.56;6009846;23;122117;-84
2022/01/20 09:39:18;;;;;;;21.27;4.88;;;;;;;6.90;50.09;101286.25;6009002;23;119367;-82
2022/01/20 09:41:54;;;;;;;18.77;4.03;;;;;;;6.91;50.06;101282.34;6057969;23;119576;-82
2022/01/20 09:44:22;;;;;;;24.20;4.68;;;;;;;6.89;49.57;101292.88;6039134;23;121977;-86
2022/01/20 09:46:48;;;;;;;19.38;3.90;;;;;;;6.94;49.28;101289.69;6035225;23;121387;-84
2022/01/20 09:49:26;;;;;;;21.88;4.97;;;;;;;7.04;49.07;101305.91;6056517;23;122163;-84
2022/01/20 09:51:53;;;;;;;22.63;4.10;;;;;;;6.92;49.69;101287.38;6082945;23;119286;-84
2022/01/20 09:57:24;;;;;;;14.75;3.88;;;;;;;7.33;48.93;101322.66;6090432;22;122495;31
2022/01/20 09:59:52;;;;;;;23.92;3.70;;;;;;;7.38;48.90;101329.59;6034197;23;119071;-84
2022/01/20 10:05:24;;;;;;;16.35;3.53;;;;;;;7.59;48.83;101353.09;6110804;22;121081;-83
2022/01/20 10:10:43;;;;;;;18.17;3.70;;;;;;;7.35;46.94;101320.28;6145575;22;119777;-82
2022/01/20 10:13:29;;;;;;;12.95;3.50;;;;;;;7.54;47.78;101337.16;6085870;22;121669;31
2022/01/20 10:16:12;;;;;;;16.52;3.67;;;;;;;7.52;47.06;101345.00;6061680;23;121319;-82
2022/01/20 10:19:34;;;;;;;22.25;3.80;;;;;;;7.51;46.99;101348.91;6079894;22;121004;31
2022/01/20 10:22:14;;;;;;;19.30;3.70;;;;;;;6.96;46.43;101273.69;6035034;23;119041;-84
2022/01/20 10:25:03;;;;;;;15.70;3.72;;;;;;;7.51;47.07;101344.22;6059684;23;119219;-83
2022/01/20 10:27:54;;;;;;;13.02;3.65;;;;;;;7.20;46.76;101291.66;6035237;23;122021;-83
2022/01/20 10:30:25;;;;;;;17.30;3.60;;;;;;;7.34;46.47;101321.47;6060234;23;119142;-82
2022/01/20 10:32:56;;;;;;;19.23;3.63;;;;;;;7.34;46.61;101307.06;6015698;23;121214;-85
2022/01/20 10:35:31;;;;;;;16.83;3.67;;;;;;;7.25;45.88;101277.53;6036315;23;119522;-83
2022/01/20 10:52:44;;;;;;;17.27;2.90;;;;;;;7.51;44.01;101299.78;6104592;22;119176;-84
2022/01/20 10:55:24;;;;;;;18.80;3.58;;;;;;;7.42;42.17;101291.34;6098545;23;121077;-82
2022/01/20 10:57:54;;;;;;;13.43;3.10;;;;;;;7.48;41.74;101293.19;6069423;23;118952;-85
2022/01/20 11:00:25;;;;;;;13.75;3.15;;;;;;;7.85;42.08;101346.81;6068939;23;120959;-84
2022/01/20 11:02:55;;;;;;;15.95;3.50;;;;;;;7.39;41.88;101271.88;6091975;23;120501;-85
2022/01/20 11:05:26;;;;;;;14.73;3.00;;;;;;;7.61;41.78;101299.63;6094533;23;119236;-83
2022/01/20 11:07:54;;;;;;;16.10;3.85;;;;;;;7.60;41.33;101292.63;6068376;23;121066;-85
2022/01/20 11:10:24;;;;;;;17.45;3.65;;;;;;;7.96;43.18;101341.94;6118240;23;121799;-85
2022/01/20 11:13:11;;;;;;;15.13;3.13;;;;;;;7.49;42.31;101274.84;6092763;23;119274;-83
2022/01/20 11:15:40;;;;;;;21.08;3.67;;;;;;;7.97;40.93;101356.38;6093928;23;121150;-84
2022/01/20 11:18:11;;;;;;;19.58;3.70;;;;;;;7.77;40.74;101329.00;6099044;23;122082;-84
2022/01/20 11:20:43;;;;;;;14.73;3.28;;;;;;;7.43;41.53;101293.66;6094273;23;119191;-85
2022/01/20 11:23:10;;;;;;;16.02;3.30;;;;;;;7.41;41.43;101296.03;6091949;23;119926;-85
2022/01/20 11:26:05;;;;;;;15.10;3.33;;;;;;;7.85;41.23;101355.03;6118089;23;119178;-82
2022/01/20 11:29:00;;;;;;;16.70;3.33;;;;;;;7.70;41.08;101329.13;6117578;23;121061;-85
2022/01/20 11:31:45;;;;;;;13.25;3.17;;;;;;;7.65;39.77;101327.63;6118490;23;119511;-82
2022/01/20 11:34:37;;;;;;;14.93;3.10;;;;;;;7.56;40.36;101319.19;6112275;23;119114;-86
2022/01/20 11:37:08;;;;;;;10.35;3.03;;;;;;;7.85;39.92;101362.44;6118762;23;118378;-84
2022/01/20 11:39:39;;;;;;;12.82;4.20;;;;;;;7.57;39.90;101309.03;6093249;23;121669;-82
2022/01/20 11:42:18;;;;;;;;;;;;;;;8.00;40.94;101363.75;6122992;23;119060;-82
2022/01/20 11:44:44;;;;;;;13.25;2.70;;;;;;;7.90;38.97;101349.09;6093977;23;122553;-83
2022/01/20 11:47:11;;;;;;;8.65;1.98;;;;;;;7.81;38.91;101332.47;6093653;23;119247;-83
2022/01/20 11:49:40;;;;;;;11.98;2.20;;;;;;;7.54;38.41;101304.41;6117487;23;121028;-84
2022/01/20 11:52:07;;;;;;;10.70;2.40;;;;;;;8.00;37.60;101389.09;6067063;23;121787;-84
2022/01/20 11:54:40;;;;;;;14.07;2.95;;;;;;;7.80;37.10;101354.69;6091434;23;119498;-85
2022/01/20 11:57:15;;;;;;;10.27;2.42;;;;;;;7.95;36.71;101383.34;6091112;23;120552;-83
2022/01/20 11:59:44;;;;;;;12.20;2.45;;;;;;;7.76;38.00;101349.31;6089971;23;121898;-85
2022/01/20 12:02:24;;;;;;;10.65;2.80;;;;;;;8.02;38.68;101384.00;6090687;22;119461;-84
2022/01/20 12:04:52;;;;;;;10.07;2.38;;;;;;;7.68;38.34;101328.75;6072012;23;121171;-84
2022/01/20 12:07:34;;;;;;;10.90;2.38;;;;;;;7.69;39.02;101338.50;6070939;23;119314;-84
2022/01/20 12:10:12;;;;;;;13.65;3.40;;;;;;;7.70;38.00;101337.31;6069415;23;120337;-85
2022/01/20 12:12:40;;;;;;;9.80;2.30;;;;;;;7.71;38.49;101355.22;6068188;23;122085;-84
2022/01/20 12:15:15;;;;;;;12.25;2.40;;;;;;;7.90;36.84;101372.91;6119201;23;118848;-83
2022/01/20 12:17:53;;;;;;;11.15;2.50;;;;;;;7.82;36.77;101374.97;6117830;23;118413;-85
2022/01/20 12:20:23;;;;;;;10.63;2.40;;;;;;;7.79;36.94;101383.19;6092098;23;122978;-82
2022/01/20 12:22:49;;;;;;;7.30;2.20;;;;;;;8.00;36.50;101413.69;6116842;23;119031;-86
2022/01/20 12:25:19;;;;;;;8.13;2.47;;;;;;;7.83;37.85;101384.72;6115629;23;119682;-83
2022/01/20 12:27:50;;;;;;;14.05;2.95;;;;;;;7.75;37.62;101385.22;6122518;23;119277;-85
2022/01/20 12:30:22;;;;;;;11.70;2.35;;;;;;;7.58;37.19;101367.94;6117692;23;119863;-84
2022/01/20 12:32:56;;;;;;;9.65;2.53;;;;;;;7.61;38.29;101375.28;6066717;23;122020;-85
2022/01/20 12:35:22;;;;;;;;;;;;;;;7.97;38.71;101414.53;6091473;23;119333;-85
2022/01/20 12:37:48;;;;;;;10.93;2.40;;;;;;;7.74;37.75;101378.97;6118247;23;118265;-84
2022/01/20 12:40:20;;;;;;;9.07;2.28;;;;;;;7.71;37.13;101368.88;6090857;23;121488;-83
2022/01/20 12:42:48;;;;;;;11.00;2.58;;;;;;;7.61;36.77;101350.72;6091168;23;118978;-82
2022/01/20 12:48:10;;;;;;;9.20;2.15;;;;;;;7.68;38.30;101402.50;6115576;23;120302;-85
2022/01/20 12:50:36;;;;;;;6.88;2.00;;;;;;;7.55;35.83;101398.75;6123147;23;119169;-81
2022/01/20 12:53:02;;;;;;;9.63;2.15;;;;;;;7.35;35.09;101391.25;6067607;23;122162;-84
2022/01/20 12:55:28;;;;;;;10.52;2.20;;;;;;;7.34;35.06;101408.81;6091015;23;119286;-82
2022/01/20 12:57:59;;;;;;;10.45;2.30;;;;;;;7.51;34.97;101452.66;6091014;23;119148;-83